createdAt,value
2022-12-31T00:24:33.397Z,998.181
2022-12-31T00:54:50.662Z,998.3760000000001
2022-12-31T01:25:10.287Z,998.5908999999999
2022-12-31T01:55:27.565Z,998.7249
2022-12-31T02:25:44.795Z,998.722
2022-12-31T02:56:02.609Z,998.905
2022-12-31T03:26:19.896Z,998.867
2022-12-31T03:56:37.517Z,999.113
2022-12-31T04:26:54.605Z,999.4028999999999
2022-12-31T04:57:12.111Z,999.758
2022-12-31T05:27:33.450Z,999.9680000000001
2022-12-31T05:57:52.016Z,1000.1060000000001
2022-12-31T06:28:12.187Z,1000.5239999999999
2022-12-31T06:58:31.577Z,1000.563
2022-12-31T07:28:50.454Z,1000.9760000000001
2022-12-31T07:59:07.486Z,1001.038
2022-12-31T08:29:26.990Z,1001.3689999999999
2022-12-31T08:59:45.614Z,1001.615
2022-12-31T09:30:03.150Z,1001.915
2022-12-31T10:00:22.356Z,1002.0889999999999
2022-12-31T10:30:40.805Z,1002.238
2022-12-31T11:00:59.924Z,1002.3810000000001
2022-12-31T11:31:16.648Z,1002.325
2022-12-31T12:01:33.150Z,1002.1669999999999
2022-12-31T12:31:50.583Z,1002.128
2022-12-31T13:02:07.857Z,1001.93
2022-12-31T13:32:24.173Z,1001.952
2022-12-31T14:33:03.244Z,1002.065
2022-12-31T15:03:19.709Z,1002.329
2022-12-31T15:33:34.596Z,1002.332
2022-12-31T16:03:50.789Z,1002.4010000000001
2022-12-31T16:34:06.626Z,1002.342
2022-12-31T17:04:23.400Z,1002.4
2022-12-31T17:34:44.624Z,1002.3580000000001
2022-12-31T18:05:03.991Z,1002.5419999999999
2022-12-31T18:35:57.552Z,1002.875
2022-12-31T19:05:45.288Z,1002.943
2022-12-31T19:36:03.064Z,1002.9760000000001
2022-12-31T20:06:18.538Z,1003.172
2022-12-31T20:36:35.356Z,1003.1239999999999
2022-12-31T21:06:54.391Z,1003.375
2022-12-31T21:37:12.576Z,1003.581
2022-12-31T22:07:28.482Z,1003.96
2022-12-31T22:37:56.804Z,1004.148
2022-12-31T23:08:15.629Z,1004.405
2022-12-31T23:38:27.008Z,1004.3939999999999
